Time;durP1;ratioP1;P1;durP2;ratioP2;P2;SDS_P1;SDS_P2;PMS_P1;PMS_P2;Temp;Humidity;BMP_temperature;BMP_pressure;BME280_temperature;BME280_humidity;BME280_pressure;Samples;Min_cycle;Max_cycle;Signal;HPM_P1;HPM_P2
2021/01/09 00:01:07;;;;;;;26.03;16.53;;;2.00;99.90;;;;;;6175464;28;20046;-75
2021/01/09 00:04:09;;;;;;;31.80;19.73;;;2.00;99.90;;;;;;6175056;28;20501;-75
2021/01/09 00:07:10;;;;;;;29.33;19.40;;;2.00;99.90;;;;;;6174705;28;20069;-75
2021/01/09 00:10:12;;;;;;;31.37;18.30;;;2.00;99.90;;;;;;6174373;28;20043;-75
2021/01/09 00:13:14;;;;;;;29.97;19.30;;;2.00;99.90;;;;;;6174201;28;20122;-76
2021/01/09 00:16:15;;;;;;;29.17;20.70;;;2.00;99.90;;;;;;6175090;28;20057;-75
2021/01/09 00:19:16;;;;;;;29.37;16.57;;;2.00;99.90;;;;;;6174725;28;20073;-75
2021/01/09 00:22:18;;;;;;;36.20;19.73;;;2.00;99.90;;;;;;6174222;28;20145;-75
2021/01/09 00:25:20;;;;;;;37.53;19.73;;;2.00;99.90;;;;;;6174267;28;20046;-75
2021/01/09 00:28:22;;;;;;;29.50;19.87;;;2.00;99.90;;;;;;6174741;28;20057;-75
2021/01/09 00:31:23;;;;;;;38.07;21.20;;;2.00;99.90;;;;;;6174183;28;20054;-75
2021/01/09 00:34:25;;;;;;;30.57;20.60;;;2.00;99.90;;;;;;6174079;28;20047;-75
2021/01/09 00:37:26;;;;;;;35.20;20.90;;;2.00;99.90;;;;;;6174588;28;20129;-75
2021/01/09 00:40:28;;;;;;;30.17;19.07;;;2.00;99.90;;;;;;6174477;28;20130;-75
2021/01/09 00:43:30;;;;;;;32.57;19.20;;;2.10;99.90;;;;;;6173671;28;20059;-75
2021/01/09 00:46:31;;;;;;;25.73;20.00;;;2.10;99.90;;;;;;6173944;28;20192;-75
2021/01/09 00:49:32;;;;;;;35.87;19.97;;;2.10;99.90;;;;;;6173512;28;20576;-76
2021/01/09 00:52:34;;;;;;;33.70;19.63;;;2.00;99.90;;;;;;6174135;28;20105;-75
2021/01/09 00:55:35;;;;;;;31.80;19.93;;;2.00;99.90;;;;;;6174522;28;20062;-76
2021/01/09 00:58:37;;;;;;;35.03;19.37;;;2.00;99.90;;;;;;6174187;28;20076;-76
2021/01/09 01:01:38;;;;;;;31.50;19.67;;;2.00;99.90;;;;;;6174703;28;20149;-76
2021/01/09 01:04:40;;;;;;;32.73;20.60;;;2.00;99.90;;;;;;6173982;28;20571;-75
2021/01/09 01:07:41;;;;;;;36.93;21.87;;;2.00;99.90;;;;;;6174341;28;20059;-75
2021/01/09 01:10:42;;;;;;;37.73;21.70;;;2.00;99.90;;;;;;6171843;28;20059;-75
2021/01/09 01:13:44;;;;;;;32.03;19.63;;;2.00;99.90;;;;;;6173871;28;20047;-75
2021/01/09 01:16:49;;;;;;;35.30;22.07;;;2.00;99.90;;;;;;6174569;28;20050;-75
2021/01/09 01:19:50;;;;;;;32.60;21.03;;;2.00;99.90;;;;;;6173611;28;20047;-75
2021/01/09 01:22:52;;;;;;;29.50;18.27;;;2.00;99.90;;;;;;6173436;28;20047;-75
2021/01/09 01:25:53;;;;;;;37.33;20.70;;;2.00;99.90;;;;;;6173374;28;20049;-75
2021/01/09 01:28:55;;;;;;;36.53;20.10;;;2.00;99.90;;;;;;6173682;28;20412;-75
2021/01/09 01:31:58;;;;;;;34.10;21.10;;;2.10;99.90;;;;;;6173716;28;20078;-75
2021/01/09 01:34:59;;;;;;;31.23;19.67;;;2.10;99.90;;;;;;6174112;28;20055;-76
2021/01/09 01:38:00;;;;;;;37.57;19.20;;;2.00;99.90;;;;;;6173529;28;20074;-75
2021/01/09 01:41:02;;;;;;;34.07;20.43;;;2.00;99.90;;;;;;6172995;28;20051;-75
2021/01/09 01:44:05;;;;;;;33.97;22.53;;;2.00;99.90;;;;;;6173813;28;20065;-75
2021/01/09 01:47:10;;;;;;;32.17;20.87;;;2.00;99.90;;;;;;6173557;28;20097;-75
2021/01/09 01:50:12;;;;;;;35.77;20.77;;;2.00;99.90;;;;;;6173352;28;20074;-75
2021/01/09 01:53:14;;;;;;;33.53;20.33;;;2.00;99.90;;;;;;6174016;28;20042;-75
2021/01/09 01:56:15;;;;;;;35.47;20.57;;;2.00;99.90;;;;;;6178009;28;20058;-75
2021/01/09 01:59:17;;;;;;;35.87;19.40;;;1.90;99.90;;;;;;6177477;28;20047;-75
2021/01/09 02:02:19;;;;;;;35.57;22.00;;;1.90;99.90;;;;;;6177073;28;20436;-75
2021/01/09 02:05:23;;;;;;;38.37;23.53;;;1.90;99.90;;;;;;6177502;28;20532;-75
2021/01/09 02:08:29;;;;;;;36.57;20.70;;;1.90;99.90;;;;;;6177629;28;20157;-75
2021/01/09 02:11:36;;;;;;;33.67;20.80;;;1.90;99.90;;;;;;6177076;28;20656;-75
2021/01/09 02:14:40;;;;;;;30.70;20.92;;;1.90;99.90;;;;;;6177074;28;20398;-75
2021/01/09 02:17:42;;;;;;;31.23;21.57;;;2.00;99.90;;;;;;6176921;28;20055;-76
2021/01/09 02:20:45;;;;;;;32.90;20.93;;;2.00;99.90;;;;;;6176995;28;20078;-76
2021/01/09 02:23:48;;;;;;;37.70;23.00;;;2.00;99.90;;;;;;6177345;28;20138;-75
2021/01/09 02:26:50;;;;;;;35.47;22.40;;;2.00;99.90;;;;;;6180430;28;20074;-75
2021/01/09 02:29:54;;;;;;;34.27;22.50;;;2.00;99.90;;;;;;6179799;28;20042;-75
2021/01/09 02:33:01;;;;;;;35.47;23.53;;;2.00;99.90;;;;;;6176855;28;20097;-75
2021/01/09 02:36:04;;;;;;;36.33;20.93;;;2.00;99.90;;;;;;6177176;28;20058;-75
2021/01/09 02:39:07;;;;;;;34.27;21.37;;;2.00;99.90;;;;;;6176516;28;20070;-75
2021/01/09 02:42:09;;;;;;;39.13;22.73;;;2.00;99.90;;;;;;6176641;28;20313;-75
2021/01/09 02:45:11;;;;;;;37.03;21.77;;;2.00;99.90;;;;;;6176781;28;20509;-75
2021/01/09 02:48:12;;;;;;;32.40;21.23;;;2.00;99.90;;;;;;6176804;28;20057;-75
2021/01/09 02:51:13;;;;;;;32.63;21.93;;;2.00;99.90;;;;;;6175813;28;20109;-75
2021/01/09 02:54:15;;;;;;;34.43;21.27;;;2.10;99.90;;;;;;6176484;28;20130;-75
2021/01/09 02:57:17;;;;;;;32.93;20.03;;;2.10;99.90;;;;;;6176022;28;20113;-75
2021/01/09 03:00:19;;;;;;;33.00;20.23;;;2.10;99.90;;;;;;6176465;28;20496;-75
2021/01/09 03:03:20;;;;;;;43.03;24.03;;;2.20;99.90;;;;;;6176586;28;20057;-75
2021/01/09 03:06:22;;;;;;;29.13;19.93;;;2.20;99.90;;;;;;6176471;28;20043;-75
2021/01/09 03:09:24;;;;;;;35.97;20.93;;;2.20;99.90;;;;;;6175867;28;20505;-75
2021/01/09 03:12:25;;;;;;;35.47;20.67;;;2.20;99.90;;;;;;6176145;28;20500;-75
2021/01/09 03:15:26;;;;;;;31.03;20.13;;;2.20;99.90;;;;;;6176024;28;20547;-75
2021/01/09 03:18:27;;;;;;;38.20;22.30;;;2.20;99.90;;;;;;6175745;28;20464;-75
2021/01/09 03:21:29;;;;;;;32.73;21.93;;;2.10;99.90;;;;;;6176721;28;20145;-76
2021/01/09 03:24:31;;;;;;;35.40;24.07;;;2.20;99.90;;;;;;6176351;28;20058;-76
2021/01/09 03:27:32;;;;;;;35.23;21.23;;;2.10;99.90;;;;;;6175637;28;20047;-76
2021/01/09 03:30:34;;;;;;;35.70;22.13;;;2.10;99.90;;;;;;6175202;28;20046;-76
2021/01/09 03:33:35;;;;;;;36.23;22.67;;;2.10;99.90;;;;;;6175561;28;20047;-75
2021/01/09 03:36:36;;;;;;;40.53;22.73;;;2.10;99.90;;;;;;6175886;28;20062;-76
2021/01/09 03:39:38;;;;;;;31.60;22.40;;;2.10;99.90;;;;;;6224519;28;20106;-75
2021/01/09 03:42:40;;;;;;;38.90;22.07;;;2.20;99.90;;;;;;6223595;28;20136;-75
2021/01/09 03:45:41;;;;;;;40.97;20.60;;;2.20;99.90;;;;;;6223790;28;20053;-76
2021/01/09 03:48:42;;;;;;;38.07;20.40;;;2.20;99.90;;;;;;6223368;28;20137;-76
2021/01/09 03:51:43;;;;;;;35.60;19.93;;;2.20;99.90;;;;;;6223983;28;20133;-76
2021/01/09 03:54:46;;;;;;;33.27;21.17;;;2.20;99.90;;;;;;6223562;28;20180;-75
2021/01/09 03:57:47;;;;;;;32.43;21.17;;;2.10;99.90;;;;;;6223985;28;20070;-76
2021/01/09 04:00:48;;;;;;;35.87;21.23;;;2.10;99.90;;;;;;6223186;28;20050;-76
2021/01/09 04:03:49;;;;;;;40.03;22.20;;;2.10;99.90;;;;;;6223781;28;20050;-76
2021/01/09 04:06:50;;;;;;;34.00;21.70;;;2.10;99.90;;;;;;6223258;28;20046;-75
2021/01/09 04:09:53;;;;;;;35.13;22.40;;;2.00;99.90;;;;;;6222684;28;20049;-75
2021/01/09 04:12:54;;;;;;;35.77;23.90;;;2.00;99.90;;;;;;6223360;28;20049;-76
2021/01/09 04:15:55;;;;;;;39.13;22.47;;;2.00;99.90;;;;;;6223530;28;20564;-75
2021/01/09 04:18:57;;;;;;;45.80;25.07;;;2.00;99.90;;;;;;6222674;28;20080;-75
2021/01/09 04:21:58;;;;;;;39.27;22.00;;;1.90;99.90;;;;;;6222556;28;20069;-75
2021/01/09 04:25:00;;;;;;;39.43;22.90;;;1.80;99.90;;;;;;6223197;28;20145;-75
2021/01/09 04:28:02;;;;;;;34.23;21.13;;;1.80;99.90;;;;;;6223233;28;20141;-76
2021/01/09 04:31:03;;;;;;;37.00;21.23;;;1.80;99.90;;;;;;6222753;28;20128;-76
2021/01/09 04:34:04;;;;;;;45.43;24.10;;;1.80;99.90;;;;;;6222425;28;20174;-75
2021/01/09 04:37:05;;;;;;;40.33;24.93;;;1.80;99.90;;;;;;6223390;28;20041;-76
2021/01/09 04:40:08;;;;;;;38.63;22.13;;;1.80;99.90;;;;;;6222852;28;20103;-75
2021/01/09 04:43:09;;;;;;;45.03;23.37;;;1.60;99.90;;;;;;6222635;28;20056;-75
2021/01/09 04:46:13;;;;;;;38.70;23.20;;;1.60;99.90;;;;;;6223072;28;20092;-75
2021/01/09 04:49:15;;;;;;;40.47;22.70;;;1.50;99.90;;;;;;6222594;28;20049;-76
2021/01/09 04:52:18;;;;;;;42.00;20.50;;;1.50;99.90;;;;;;6223109;28;20393;-75
2021/01/09 04:55:21;;;;;;;38.57;22.37;;;1.40;99.90;;;;;;6223331;28;20157;-75
2021/01/09 04:58:22;;;;;;;34.97;19.67;;;1.40;99.90;;;;;;6223076;28;20042;-76
2021/01/09 05:01:24;;;;;;;39.03;22.50;;;1.40;99.90;;;;;;6222218;28;20474;-75
2021/01/09 05:04:25;;;;;;;36.57;21.87;;;1.30;99.90;;;;;;6223143;28;20056;-75
2021/01/09 05:07:26;;;;;;;45.77;23.67;;;1.20;99.90;;;;;;6222923;28;20060;-76
2021/01/09 05:10:35;;;;;;;50.33;26.80;;;1.40;99.90;;;;;;6222508;28;20084;-75
2021/01/09 05:13:36;;;;;;;40.73;23.30;;;1.40;99.90;;;;;;6223414;28;20057;-75
2021/01/09 05:16:38;;;;;;;46.30;25.00;;;1.40;99.90;;;;;;6222320;28;20081;-75
2021/01/09 05:19:41;;;;;;;45.67;24.30;;;1.40;99.90;;;;;;6222672;28;20049;-75
2021/01/09 05:22:44;;;;;;;40.93;23.70;;;1.40;99.90;;;;;;6222261;28;20045;-75
2021/01/09 05:25:47;;;;;;;43.47;23.90;;;1.40;99.90;;;;;;6222545;28;20073;-75
2021/01/09 05:28:51;;;;;;;40.57;23.07;;;1.40;99.90;;;;;;6222420;28;20542;-75
2021/01/09 05:31:52;;;;;;;39.50;21.07;;;1.40;99.90;;;;;;6227561;28;20054;-75
2021/01/09 05:34:55;;;;;;;45.53;25.37;;;1.40;99.90;;;;;;6226523;28;20088;-75
2021/01/09 05:37:56;;;;;;;39.90;21.87;;;1.40;99.90;;;;;;6226530;28;20045;-75
2021/01/09 05:41:04;;;;;;;39.70;22.50;;;1.50;99.90;;;;;;6226452;28;20046;-75
2021/01/09 05:44:07;;;;;;;43.92;21.90;;;1.40;99.90;;;;;;6227113;28;20189;-75
2021/01/09 05:47:08;;;;;;;37.23;23.90;;;1.30;99.90;;;;;;6227031;28;20053;-75
2021/01/09 05:50:11;;;;;;;38.33;22.00;;;1.40;99.90;;;;;;6226198;28;20050;-75
2021/01/09 05:53:40;;;;;;;37.07;21.90;;;1.30;99.90;;;;;;6226471;28;20049;-75
2021/01/09 05:56:43;;;;;;;36.42;20.27;;;1.20;99.90;;;;;;6226559;28;20050;-75
2021/01/09 05:59:45;;;;;;;36.47;21.47;;;1.00;99.90;;;;;;6226451;28;20057;-75
2021/01/09 06:02:59;;;;;;;41.80;24.10;;;1.00;99.90;;;;;;6226580;28;20508;-75
2021/01/09 06:06:05;;;;;;;38.50;21.10;;;0.90;99.90;;;;;;6226300;28;20057;-75
2021/01/09 06:09:08;;;;;;;42.47;21.53;;;0.90;99.90;;;;;;6226161;28;20046;-75
2021/01/09 06:12:12;;;;;;;40.53;22.03;;;0.80;99.90;;;;;;6226171;28;20495;-75
2021/01/09 06:15:17;;;;;;;38.90;23.33;;;0.80;99.90;;;;;;6226038;28;20069;-74
2021/01/09 06:18:19;;;;;;;38.47;20.43;;;0.80;99.90;;;;;;6226331;28;20042;-75
2021/01/09 06:21:21;;;;;;;39.13;21.43;;;0.80;99.90;;;;;;6225976;28;20125;-75
2021/01/09 06:24:23;;;;;;;39.30;20.40;;;0.80;99.90;;;;;;6226494;28;20145;-75
2021/01/09 06:27:31;;;;;;;37.07;22.17;;;0.80;99.90;;;;;;6225716;28;20049;-75
2021/01/09 06:30:34;;;;;;;39.07;22.37;;;0.80;99.90;;;;;;6225515;28;20132;-75
2021/01/09 06:33:39;;;;;;;39.00;21.37;;;0.80;99.90;;;;;;6225807;28;20081;-75
2021/01/09 06:36:43;;;;;;;45.37;23.30;;;0.80;99.90;;;;;;6226456;28;20054;-75
2021/01/09 06:39:44;;;;;;;44.13;23.60;;;0.80;99.90;;;;;;6225497;28;20057;-75
2021/01/09 06:42:48;;;;;;;38.43;21.43;;;0.80;99.90;;;;;;6225570;28;20136;-76
2021/01/09 06:45:50;;;;;;;41.43;23.33;;;0.80;99.90;;;;;;6225103;28;20054;-75
2021/01/09 06:48:52;;;;;;;36.03;20.83;;;0.80;99.90;;;;;;6225370;28;20077;-75
2021/01/09 06:51:55;;;;;;;37.03;20.77;;;0.90;99.90;;;;;;6225620;28;20041;-75
2021/01/09 06:54:56;;;;;;;39.40;22.87;;;0.90;99.90;;;;;;6225768;28;20045;-76
2021/01/09 06:57:59;;;;;;;36.83;22.17;;;1.00;99.90;;;;;;6225578;28;20050;-75
2021/01/09 07:01:20;;;;;;;38.07;19.67;;;1.00;99.90;;;;;;6224173;28;20045;-75
2021/01/09 07:05:00;;;;;;;36.87;20.50;;;1.00;99.90;;;;;;6204814;28;20058;-75
2021/01/09 07:08:02;;;;;;;41.90;21.83;;;1.00;99.90;;;;;;6153556;28;20497;-75
2021/01/09 07:11:06;;;;;;;38.13;21.30;;;0.90;99.90;;;;;;6176636;28;20043;-75
2021/01/09 07:14:15;;;;;;;38.10;19.70;;;0.80;99.90;;;;;;6163487;28;20111;-76
2021/01/09 07:17:18;;;;;;;37.07;19.37;;;0.70;99.90;;;;;;6153666;29;20528;-75
2021/01/09 07:20:23;;;;;;;34.13;20.00;;;0.60;99.90;;;;;;6153701;29;20417;-75
2021/01/09 07:23:28;;;;;;;35.37;20.97;;;0.60;99.90;;;;;;6153232;28;20070;-75
2021/01/09 07:26:30;;;;;;;29.17;18.50;;;0.50;99.90;;;;;;6153196;28;20058;-75
2021/01/09 07:29:39;;;;;;;34.43;19.27;;;0.50;99.90;;;;;;6153190;29;20421;-75
2021/01/09 07:32:49;;;;;;;35.43;20.77;;;0.50;99.90;;;;;;6152947;29;20047;-75
2021/01/09 07:35:52;;;;;;;39.80;20.47;;;0.50;99.90;;;;;;6153879;29;20051;-74
2021/01/09 07:39:01;;;;;;;34.63;21.40;;;0.50;99.90;;;;;;6159104;28;20057;-75
2021/01/09 07:42:25;;;;;;;33.27;18.97;;;0.60;99.90;;;;;;6175602;28;20066;-75
2021/01/09 07:45:32;;;;;;;41.20;22.67;;;0.70;99.90;;;;;;6175488;28;20049;-74
2021/01/09 07:48:34;;;;;;;41.40;23.35;;;0.70;99.90;;;;;;6175625;28;20643;-74
2021/01/09 07:51:48;;;;;;;36.30;22.07;;;0.70;99.90;;;;;;6174024;28;20050;-74
2021/01/09 07:54:55;;;;;;;36.03;19.63;;;0.80;99.90;;;;;;6175473;28;20043;-75
2021/01/09 07:57:56;;;;;;;32.17;21.67;;;0.80;99.90;;;;;;6174761;28;20051;-75
2021/01/09 08:00:59;;;;;;;48.93;30.40;;;0.90;99.90;;;;;;6174886;28;20050;-75
2021/01/09 08:04:00;;;;;;;59.23;34.97;;;1.00;99.90;;;;;;6175246;28;20050;-74
2021/01/09 08:07:02;;;;;;;45.30;29.60;;;1.00;99.90;;;;;;6174736;28;20058;-75
2021/01/09 08:10:18;;;;;;;66.20;38.10;;;1.10;99.90;;;;;;6164867;28;20141;-75
2021/01/09 08:13:22;;;;;;;65.47;35.60;;;1.20;99.90;;;;;;6156290;28;20051;-75
2021/01/09 08:16:27;;;;;;;50.43;26.33;;;1.20;99.90;;;;;;6175498;28;20138;-75
2021/01/09 08:19:28;;;;;;;38.90;23.30;;;1.30;99.90;;;;;;6174224;28;20046;-75
2021/01/09 08:22:30;;;;;;;35.93;20.47;;;1.40;99.90;;;;;;6174544;28;20070;-75
2021/01/09 08:25:33;;;;;;;38.37;20.70;;;1.40;99.90;;;;;;6174560;28;20066;-75
2021/01/09 08:28:35;;;;;;;52.27;25.17;;;1.40;99.90;;;;;;6175372;28;20043;-75
2021/01/09 08:31:41;;;;;;;34.77;20.47;;;1.50;99.90;;;;;;6186506;28;20039;-76
2021/01/09 08:34:48;;;;;;;45.70;28.93;;;1.60;99.90;;;;;;6196078;28;20061;-76
2021/01/09 08:37:50;;;;;;;34.95;21.15;;;1.70;99.90;;;;;;6196876;28;20073;-75
2021/01/09 08:40:56;;;;;;;31.27;21.90;;;1.70;99.90;;;;;;6193334;28;20082;-76
2021/01/09 08:44:05;;;;;;;31.00;19.73;;;1.70;99.90;;;;;;6194375;28;20126;-75
2021/01/09 08:47:07;;;;;;;35.90;21.20;;;1.80;99.90;;;;;;6196963;28;20064;-76
2021/01/09 08:50:13;;;;;;;32.53;20.27;;;1.90;99.90;;;;;;6196165;28;20050;-75
2021/01/09 08:53:15;;;;;;;31.57;20.67;;;1.80;99.90;;;;;;6188408;28;20125;-75
2021/01/09 08:56:18;;;;;;;33.67;19.63;;;1.90;99.90;;;;;;6189220;28;20129;-76
2021/01/09 08:59:20;;;;;;;41.00;21.80;;;1.90;99.90;;;;;;6193863;28;20424;-76
2021/01/09 09:02:23;;;;;;;33.83;19.30;;;2.00;99.90;;;;;;6192164;28;20126;-75
2021/01/09 09:05:27;;;;;;;31.43;18.30;;;2.00;99.90;;;;;;6198781;28;20170;-75
2021/01/09 09:08:29;;;;;;;31.70;19.03;;;2.10;99.90;;;;;;6199389;28;20512;-76
2021/01/09 09:11:31;;;;;;;30.40;19.73;;;2.10;99.90;;;;;;6193213;28;23384;-75
2021/01/09 09:14:33;;;;;;;32.53;18.47;;;2.20;99.90;;;;;;6190770;28;20071;-76
2021/01/09 09:17:35;;;;;;;37.00;20.97;;;2.30;99.90;;;;;;6196532;28;20137;-76
2021/01/09 09:20:37;;;;;;;35.20;20.60;;;2.30;99.90;;;;;;6194156;28;20478;-76
2021/01/09 09:23:38;;;;;;;35.10;20.40;;;2.30;99.90;;;;;;6197498;28;20564;-76
2021/01/09 09:26:41;;;;;;;31.70;21.57;;;2.20;99.90;;;;;;6201801;28;20696;-76
2021/01/09 09:29:43;;;;;;;40.67;21.77;;;2.20;99.90;;;;;;6199054;28;20054;-75
2021/01/09 09:32:46;;;;;;;31.67;20.03;;;2.30;99.90;;;;;;6193433;28;20050;-76
2021/01/09 09:35:48;;;;;;;31.30;19.97;;;2.40;99.90;;;;;;6193495;28;20133;-77
2021/01/09 09:38:49;;;;;;;30.23;19.30;;;2.60;99.90;;;;;;6200399;28;20141;-76
2021/01/09 09:41:53;;;;;;;32.53;19.77;;;2.80;99.90;;;;;;6194444;28;22725;-76
2021/01/09 09:44:54;;;;;;;31.60;20.13;;;2.90;99.90;;;;;;6192909;28;20051;-76
2021/01/09 09:47:59;;;;;;;34.60;21.40;;;3.00;99.90;;;;;;6190187;28;20050;-77
2021/01/09 09:51:05;;;;;;;28.08;19.85;;;2.90;99.90;;;;;;6194679;28;20166;-76
2021/01/09 09:54:07;;;;;;;31.35;21.38;;;2.80;99.90;;;;;;6200342;28;20505;-75
2021/01/09 09:57:19;;;;;;;35.05;22.02;;;2.70;99.90;;;;;;6198545;28;20129;-75
2021/01/09 10:00:23;;;;;;;37.72;22.02;;;2.70;99.90;;;;;;6194191;28;20451;-75
2021/01/09 10:03:34;;;;;;;34.15;21.85;;;2.70;99.90;;;;;;6200009;28;20046;-75
2021/01/09 10:06:38;;;;;;;33.45;21.10;;;2.70;99.90;;;;;;6197942;28;20424;-75
2021/01/09 10:09:39;;;;;;;33.83;20.60;;;2.60;99.60;;;;;;6188805;28;20496;-75
2021/01/09 10:12:41;;;;;;;61.75;25.73;;;2.60;99.90;;;;;;6200272;28;20089;-75
2021/01/09 10:15:42;;;;;;;39.75;22.95;;;2.90;99.90;;;;;;6193862;28;20113;-76
2021/01/09 10:18:44;;;;;;;23.55;15.93;;;3.70;99.90;;;;;;6193671;28;20174;-75
2021/01/09 10:21:46;;;;;;;26.55;15.15;;;5.00;99.00;;;;;;6193800;28;20137;-75
2021/01/09 10:24:47;;;;;;;22.13;14.98;;;5.10;99.10;;;;;;6196047;28;20054;-76
2021/01/09 10:27:51;;;;;;;20.90;14.63;;;5.70;97.40;;;;;;6173802;28;20612;-75
2021/01/09 10:30:52;;;;;;;18.20;13.60;;;5.90;95.20;;;;;;6173079;28;20047;-75
2021/01/09 10:33:54;;;;;;;18.48;13.77;;;5.70;93.40;;;;;;6185782;28;20496;-75
2021/01/09 10:36:56;;;;;;;22.20;14.90;;;5.30;93.50;;;;;;6191651;28;20046;-76
2021/01/09 10:39:57;;;;;;;18.30;13.55;;;5.10;93.50;;;;;;6167376;28;20126;-76
2021/01/09 10:42:58;;;;;;;18.95;12.95;;;4.90;91.60;;;;;;6171899;28;20043;-76
2021/01/09 10:45:59;;;;;;;18.80;13.63;;;4.40;91.70;;;;;;6166932;28;20398;-75
2021/01/09 10:49:02;;;;;;;23.08;14.88;;;4.00;91.50;;;;;;6172139;28;20049;-76
2021/01/09 10:52:04;;;;;;;18.33;13.38;;;3.90;92.00;;;;;;6172337;28;20042;-78
2021/01/09 10:55:06;;;;;;;29.50;17.35;;;3.80;91.70;;;;;;6169297;28;20557;-75
2021/01/09 10:58:07;;;;;;;24.88;15.02;;;3.70;91.40;;;;;;6181932;28;20042;-77
2021/01/09 11:01:09;;;;;;;25.25;15.27;;;3.50;92.30;;;;;;6189520;28;20062;-75
2021/01/09 11:04:11;;;;;;;21.17;14.40;;;3.40;92.70;;;;;;6181815;28;20722;-76
2021/01/09 11:07:13;;;;;;;24.90;15.98;;;3.50;93.10;;;;;;6177659;28;20119;-76
2021/01/09 11:10:14;;;;;;;29.08;17.35;;;3.40;92.80;;;;;;6172165;28;20066;-75
2021/01/09 11:13:16;;;;;;;24.73;16.38;;;3.30;92.40;;;;;;6169636;28;20043;-76
2021/01/09 11:16:21;;;;;;;25.25;17.30;;;3.30;93.00;;;;;;6172722;28;20142;-75
2021/01/09 11:19:24;;;;;;;25.20;17.40;;;3.40;93.50;;;;;;6196130;28;20168;-76
2021/01/09 11:22:25;;;;;;;25.65;16.25;;;3.40;93.20;;;;;;6193813;28;20054;-77
2021/01/09 11:25:26;;;;;;;27.08;17.52;;;3.30;93.40;;;;;;6182653;28;20126;-75
2021/01/09 11:28:27;;;;;;;27.67;17.33;;;3.20;93.80;;;;;;6171382;28;20047;-75
2021/01/09 11:31:29;;;;;;;24.00;16.45;;;3.10;93.90;;;;;;6173276;28;20386;-75
2021/01/09 11:34:31;;;;;;;23.08;15.98;;;3.00;93.80;;;;;;6165560;28;20053;-75
2021/01/09 11:37:32;;;;;;;27.42;16.10;;;2.90;94.20;;;;;;6165917;28;20055;-75
2021/01/09 11:40:34;;;;;;;33.17;19.83;;;2.90;94.50;;;;;;6171373;28;20086;-76
2021/01/09 11:43:36;;;;;;;26.92;16.67;;;2.90;94.10;;;;;;6173524;28;20039;-76
2021/01/09 11:46:38;;;;;;;28.13;15.85;;;2.90;94.20;;;;;;6174525;28;20047;-76
2021/01/09 11:49:40;;;;;;;26.00;15.82;;;2.90;94.60;;;;;;6167666;28;20043;-76
2021/01/09 11:52:41;;;;;;;23.95;15.00;;;3.00;95.30;;;;;;6169207;28;20134;-77
2021/01/09 11:55:43;;;;;;;21.55;14.70;;;3.50;96.00;;;;;;6167909;28;20574;-78
2021/01/09 11:58:44;;;;;;;26.88;16.02;;;3.80;93.90;;;;;;6174136;28;20497;-75
2021/01/09 12:01:45;;;;;;;20.40;15.05;;;4.50;99.90;;;;;;6170159;28;20057;-75
2021/01/09 12:04:47;;;;;;;25.88;15.55;;;4.60;92.00;;;;;;6173143;28;20061;-76
2021/01/09 12:07:49;;;;;;;25.48;16.40;;;4.60;90.50;;;;;;6176747;28;20141;-77
2021/01/09 12:10:50;;;;;;;19.58;14.00;;;4.40;90.20;;;;;;6185178;28;20507;-76
2021/01/09 12:13:51;;;;;;;43.25;24.20;;;4.20;91.20;;;;;;6192274;28;20081;-77
2021/01/09 12:16:53;;;;;;;24.25;17.20;;;4.10;91.60;;;;;;6192097;28;20134;-78
2021/01/09 12:19:55;;;;;;;25.77;16.60;;;4.10;91.80;;;;;;6194574;28;20064;-76
2021/01/09 12:22:56;;;;;;;19.80;13.10;;;4.00;90.40;;;;;;6189906;28;20449;-78
2021/01/09 12:25:57;;;;;;;26.35;16.55;;;3.80;90.80;;;;;;6191350;28;20070;-77
2021/01/09 12:28:58;;;;;;;20.90;15.00;;;3.60;90.90;;;;;;6191410;28;20389;-76
2021/01/09 12:32:01;;;;;;;24.35;15.52;;;3.40;91.50;;;;;;6191470;28;20046;-76
2021/01/09 12:35:05;;;;;;;22.35;14.77;;;3.40;91.60;;;;;;6196633;28;20050;-77
2021/01/09 12:38:06;;;;;;;31.27;17.05;;;3.40;94.70;;;;;;6191476;28;20057;-77
2021/01/09 12:41:08;;;;;;;25.95;16.70;;;3.10;92.30;;;;;;6192729;28;20042;-77
2021/01/09 12:44:10;;;;;;;24.88;16.27;;;3.10;92.60;;;;;;6189176;28;20046;-77
2021/01/09 12:47:11;;;;;;;26.17;16.83;;;3.30;93.20;;;;;;6194321;28;20145;-78
2021/01/09 12:50:13;;;;;;;25.05;16.98;;;3.50;93.90;;;;;;6196713;28;20556;-77
2021/01/09 12:53:15;;;;;;;24.83;16.15;;;3.60;92.90;;;;;;6193805;28;20117;-77
2021/01/09 12:56:16;;;;;;;25.83;15.65;;;3.80;93.60;;;;;;6191064;28;20050;-77
2021/01/09 12:59:17;;;;;;;26.63;17.23;;;3.40;92.10;;;;;;6196906;28;20053;-75
2021/01/09 13:02:18;;;;;;;21.95;15.23;;;3.40;92.40;;;;;;6180479;28;20039;-76
2021/01/09 13:05:21;;;;;;;17.38;12.13;;;3.50;93.30;;;;;;6170565;28;20483;-77
2021/01/09 13:08:23;;;;;;;17.60;12.55;;;4.10;96.00;;;;;;6188993;28;20042;-76
2021/01/09 13:11:24;;;;;;;18.90;12.45;;;4.60;94.70;;;;;;6168279;28;20813;-77
2021/01/09 13:14:26;;;;;;;18.80;12.48;;;5.20;94.80;;;;;;6168872;28;20047;-77
2021/01/09 13:17:27;;;;;;;14.27;10.32;;;5.10;90.30;;;;;;6167867;28;20477;-77
2021/01/09 13:20:29;;;;;;;17.92;12.07;;;4.90;91.10;;;;;;6168503;28;20434;-77
2021/01/09 13:23:31;;;;;;;22.15;12.57;;;4.90;90.10;;;;;;6165593;28;20043;-77
2021/01/09 13:26:32;;;;;;;14.75;9.90;;;5.30;91.30;;;;;;6164417;28;20101;-78
2021/01/09 13:29:33;;;;;;;14.80;9.88;;;6.00;89.80;;;;;;6165438;28;20066;-76
2021/01/09 13:32:35;;;;;;;16.02;12.45;;;5.80;85.50;;;;;;6165132;28;20051;-78
2021/01/09 13:35:37;;;;;;;21.02;15.15;;;5.40;85.90;;;;;;6170400;28;20074;-77
2021/01/09 13:38:38;;;;;;;15.95;11.73;;;5.20;84.40;;;;;;6168379;28;20101;-76
2021/01/09 13:41:40;;;;;;;18.02;12.93;;;4.90;85.20;;;;;;6168263;28;20045;-77
2021/01/09 13:44:41;;;;;;;17.52;12.50;;;4.70;86.20;;;;;;6161154;28;20063;-77
2021/01/09 13:47:43;;;;;;;20.88;11.90;;;4.50;86.00;;;;;;6169794;28;20646;-78
2021/01/09 13:50:45;;;;;;;14.35;9.00;;;4.90;87.30;;;;;;6171104;28;20517;-77
2021/01/09 13:53:46;;;;;;;17.98;11.32;;;5.40;86.80;;;;;;6176158;28;20047;-76
2021/01/09 13:56:48;;;;;;;18.05;13.23;;;5.40;84.30;;;;;;6176961;28;20074;-77
2021/01/09 13:59:49;;;;;;;18.77;12.32;;;5.00;81.40;;;;;;6176810;28;20110;-77
2021/01/09 14:02:50;;;;;;;17.02;10.90;;;4.70;83.10;;;;;;6173995;28;20050;-77
2021/01/09 14:05:52;;;;;;;12.23;7.45;;;4.50;82.30;;;;;;6167898;28;20047;-76
2021/01/09 14:08:54;;;;;;;15.18;10.98;;;4.30;83.60;;;;;;6173644;28;20109;-75
2021/01/09 14:11:55;;;;;;;17.30;10.48;;;4.20;83.60;;;;;;6173072;28;20055;-77
2021/01/09 14:14:57;;;;;;;15.98;11.05;;;4.20;84.80;;;;;;6172917;28;20049;-75
2021/01/09 14:17:58;;;;;;;17.05;9.73;;;4.30;85.20;;;;;;6170102;28;20741;-77
2021/01/09 14:21:00;;;;;;;15.60;12.13;;;4.40;83.10;;;;;;6172647;28;20051;-76
2021/01/09 14:24:02;;;;;;;19.90;11.27;;;4.40;83.50;;;;;;6171023;28;20605;-77
2021/01/09 14:27:05;;;;;;;19.80;10.35;;;4.40;80.80;;;;;;6175065;28;20054;-76
2021/01/09 14:30:08;;;;;;;13.98;10.43;;;4.50;83.70;;;;;;6171942;28;20505;-76
2021/01/09 14:33:09;;;;;;;12.40;9.63;;;4.70;82.20;;;;;;6170673;28;20529;-77
2021/01/09 14:36:16;;;;;;;15.48;10.23;;;4.60;82.10;;;;;;6173230;28;21256;-75
2021/01/09 14:39:18;;;;;;;14.35;9.73;;;4.60;81.40;;;;;;6171002;28;20091;-77
2021/01/09 14:42:19;;;;;;;14.00;9.50;;;4.40;80.20;;;;;;6187968;28;20035;-76
2021/01/09 14:45:20;;;;;;;16.00;10.70;;;4.20;79.70;;;;;;6196441;28;20046;-77
2021/01/09 14:48:22;;;;;;;14.77;10.25;;;4.10;81.20;;;;;;6191212;28;20401;-77
2021/01/09 14:51:24;;;;;;;15.55;8.73;;;4.10;81.70;;;;;;6171754;28;20050;-77
2021/01/09 14:54:25;;;;;;;11.85;7.90;;;4.00;82.20;;;;;;6174380;28;20043;-77
2021/01/09 14:57:27;;;;;;;16.42;12.25;;;3.80;81.70;;;;;;6181270;28;20081;-75
2021/01/09 15:00:28;;;;;;;16.67;10.82;;;3.70;82.40;;;;;;6196448;28;20173;-76
2021/01/09 15:03:29;;;;;;;12.02;8.93;;;3.50;82.50;;;;;;6166570;28;20122;-77
2021/01/09 15:06:31;;;;;;;14.45;10.20;;;3.40;83.00;;;;;;6175996;28;20050;-77
2021/01/09 15:09:33;;;;;;;17.88;11.23;;;3.30;82.70;;;;;;6171588;28;20050;-77
2021/01/09 15:12:34;;;;;;;17.42;10.55;;;3.10;83.30;;;;;;6174593;28;20203;-77
2021/01/09 15:15:36;;;;;;;15.30;9.88;;;3.00;84.10;;;;;;6170937;28;20081;-77
2021/01/09 15:21:57;;;;;;;14.35;9.55;;;2.80;85.40;;;;;;6167736;28;20035;-77
2021/01/09 15:24:59;;;;;;;13.18;9.98;;;2.80;86.80;;;;;;6165950;28;20179;-77
2021/01/09 15:28:00;;;;;;;17.45;10.85;;;2.80;86.80;;;;;;6174479;28;20074;-77
2021/01/09 15:31:01;;;;;;;12.80;9.93;;;2.80;86.70;;;;;;6170520;28;20101;-76
2021/01/09 15:34:03;;;;;;;17.15;11.40;;;2.90;87.10;;;;;;6171131;28;20043;-77
2021/01/09 15:37:06;;;;;;;14.63;9.32;;;2.90;88.30;;;;;;6171099;28;20130;-76
2021/01/09 15:40:08;;;;;;;15.38;9.35;;;2.90;89.50;;;;;;6169302;28;20054;-75
2021/01/09 15:43:10;;;;;;;15.40;10.20;;;3.00;89.60;;;;;;6173059;28;20539;-76